sensor_id;sensor_type;location;lat;lon;timestamp;P1;durP1;ratioP1;P2;durP2;ratioP2
44764;SDS011;30484;52.382;5.260;2022-07-29T00:00:14;2.00;;;1.30;;
44764;SDS011;30484;52.382;5.260;2022-07-29T00:02:45;4.75;;;1.40;;
44764;SDS011;30484;52.382;5.260;2022-07-29T00:05:13;4.00;;;1.30;;
44764;SDS011;30484;52.382;5.260;2022-07-29T00:07:41;2.97;;;1.33;;
44764;SDS011;30484;52.382;5.260;2022-07-29T00:10:09;8.18;;;1.70;;
44764;SDS011;30484;52.382;5.260;2022-07-29T00:12:37;6.10;;;1.80;;
44764;SDS011;30484;52.382;5.260;2022-07-29T00:15:06;5.25;;;1.40;;
44764;SDS011;30484;52.382;5.260;2022-07-29T00:17:35;3.88;;;1.48;;
44764;SDS011;30484;52.382;5.260;2022-07-29T00:20:05;2.10;;;1.20;;
44764;SDS011;30484;52.382;5.260;2022-07-29T00:22:36;5.30;;;1.50;;
44764;SDS011;30484;52.382;5.260;2022-07-29T00:25:05;5.30;;;1.70;;
44764;SDS011;30484;52.382;5.260;2022-07-29T00:27:33;3.35;;;1.50;;
44764;SDS011;30484;52.382;5.260;2022-07-29T00:30:02;6.07;;;1.48;;
44764;SDS011;30484;52.382;5.260;2022-07-29T00:32:31;5.45;;;1.55;;
44764;SDS011;30484;52.382;5.260;2022-07-29T00:34:59;8.02;;;1.77;;
44764;SDS011;30484;52.382;5.260;2022-07-29T00:37:46;10.48;;;1.50;;
44764;SDS011;30484;52.382;5.260;2022-07-29T00:40:14;3.38;;;1.50;;
44764;SDS011;30484;52.382;5.260;2022-07-29T00:42:42;5.78;;;1.60;;
44764;SDS011;30484;52.382;5.260;2022-07-29T00:45:12;5.57;;;1.60;;
44764;SDS011;30484;52.382;5.260;2022-07-29T00:47:41;2.47;;;1.40;;
44764;SDS011;30484;52.382;5.260;2022-07-29T00:50:09;8.77;;;1.48;;
44764;SDS011;30484;52.382;5.260;2022-07-29T00:52:39;6.00;;;1.40;;
44764;SDS011;30484;52.382;5.260;2022-07-29T00:55:10;9.38;;;1.55;;
44764;SDS011;30484;52.382;5.260;2022-07-29T00:57:39;5.10;;;1.67;;
44764;SDS011;30484;52.382;5.260;2022-07-29T01:00:09;4.93;;;1.70;;
44764;SDS011;30484;52.382;5.260;2022-07-29T01:02:43;5.43;;;1.67;;
44764;SDS011;30484;52.382;5.260;2022-07-29T01:05:11;7.00;;;1.88;;
44764;SDS011;30484;52.382;5.260;2022-07-29T01:07:40;6.90;;;1.48;;
44764;SDS011;30484;52.382;5.260;2022-07-29T01:10:10;4.07;;;1.40;;
44764;SDS011;30484;52.382;5.260;2022-07-29T01:12:40;4.03;;;1.42;;
44764;SDS011;30484;52.382;5.260;2022-07-29T01:15:11;8.00;;;1.48;;
44764;SDS011;30484;52.382;5.260;2022-07-29T01:17:41;4.25;;;1.50;;
44764;SDS011;30484;52.382;5.260;2022-07-29T01:20:20;6.35;;;1.55;;
44764;SDS011;30484;52.382;5.260;2022-07-29T01:26:04;3.95;;;1.77;;
44764;SDS011;30484;52.382;5.260;2022-07-29T01:28:49;4.18;;;1.50;;
44764;SDS011;30484;52.382;5.260;2022-07-29T01:31:25;4.45;;;1.50;;
44764;SDS011;30484;52.382;5.260;2022-07-29T01:34:02;6.50;;;1.88;;
44764;SDS011;30484;52.382;5.260;2022-07-29T01:36:33;4.72;;;1.70;;
44764;SDS011;30484;52.382;5.260;2022-07-29T01:39:05;3.95;;;1.67;;
44764;SDS011;30484;52.382;5.260;2022-07-29T01:41:35;4.38;;;1.20;;
44764;SDS011;30484;52.382;5.260;2022-07-29T01:44:10;5.60;;;1.80;;
44764;SDS011;30484;52.382;5.260;2022-07-29T01:46:41;7.10;;;1.70;;
44764;SDS011;30484;52.382;5.260;2022-07-29T01:49:14;8.60;;;1.80;;
44764;SDS011;30484;52.382;5.260;2022-07-29T01:51:45;7.47;;;2.00;;
44764;SDS011;30484;52.382;5.260;2022-07-29T01:54:16;5.18;;;1.70;;
44764;SDS011;30484;52.382;5.260;2022-07-29T01:56:47;4.25;;;1.60;;
44764;SDS011;30484;52.382;5.260;2022-07-29T01:59:18;7.53;;;2.15;;
44764;SDS011;30484;52.382;5.260;2022-07-29T02:01:49;8.43;;;2.03;;
44764;SDS011;30484;52.382;5.260;2022-07-29T02:04:20;6.88;;;1.83;;
44764;SDS011;30484;52.382;5.260;2022-07-29T02:06:56;7.43;;;1.73;;
44764;SDS011;30484;52.382;5.260;2022-07-29T02:09:26;5.53;;;1.90;;
44764;SDS011;30484;52.382;5.260;2022-07-29T02:11:55;6.32;;;1.73;;
44764;SDS011;30484;52.382;5.260;2022-07-29T02:14:25;7.82;;;1.88;;
44764;SDS011;30484;52.382;5.260;2022-07-29T02:17:06;4.15;;;1.80;;
44764;SDS011;30484;52.382;5.260;2022-07-29T02:19:35;4.25;;;2.00;;
44764;SDS011;30484;52.382;5.260;2022-07-29T02:22:05;5.90;;;1.90;;
44764;SDS011;30484;52.382;5.260;2022-07-29T02:24:34;7.10;;;1.88;;
44764;SDS011;30484;52.382;5.260;2022-07-29T02:27:04;6.15;;;2.10;;
44764;SDS011;30484;52.382;5.260;2022-07-29T02:29:33;7.15;;;2.00;;
44764;SDS011;30484;52.382;5.260;2022-07-29T02:32:02;4.57;;;2.00;;
44764;SDS011;30484;52.382;5.260;2022-07-29T02:34:31;4.60;;;1.90;;
44764;SDS011;30484;52.382;5.260;2022-07-29T02:37:03;8.77;;;1.85;;
44764;SDS011;30484;52.382;5.260;2022-07-29T02:39:31;4.43;;;1.85;;
44764;SDS011;30484;52.382;5.260;2022-07-29T02:42:01;4.20;;;1.65;;
44764;SDS011;30484;52.382;5.260;2022-07-29T02:44:30;3.15;;;1.65;;
44764;SDS011;30484;52.382;5.260;2022-07-29T02:47:04;5.13;;;1.80;;
44764;SDS011;30484;52.382;5.260;2022-07-29T02:49:36;6.72;;;2.13;;
44764;SDS011;30484;52.382;5.260;2022-07-29T02:52:07;4.47;;;1.90;;
44764;SDS011;30484;52.382;5.260;2022-07-29T02:54:38;4.30;;;1.70;;
44764;SDS011;30484;52.382;5.260;2022-07-29T02:57:09;4.38;;;1.60;;
44764;SDS011;30484;52.382;5.260;2022-07-29T02:59:42;8.93;;;2.20;;
44764;SDS011;30484;52.382;5.260;2022-07-29T03:02:14;4.65;;;2.15;;
44764;SDS011;30484;52.382;5.260;2022-07-29T03:04:42;5.47;;;2.03;;
44764;SDS011;30484;52.382;5.260;2022-07-29T03:07:13;6.88;;;1.95;;
44764;SDS011;30484;52.382;5.260;2022-07-29T03:09:42;6.95;;;1.88;;
44764;SDS011;30484;52.382;5.260;2022-07-29T03:12:10;5.65;;;1.77;;
44764;SDS011;30484;52.382;5.260;2022-07-29T03:14:38;6.55;;;2.30;;
44764;SDS011;30484;52.382;5.260;2022-07-29T03:17:07;5.80;;;2.20;;
44764;SDS011;30484;52.382;5.260;2022-07-29T03:19:38;6.38;;;1.85;;
44764;SDS011;30484;52.382;5.260;2022-07-29T03:22:07;7.13;;;1.73;;
44764;SDS011;30484;52.382;5.260;2022-07-29T03:24:36;3.28;;;1.70;;
44764;SDS011;30484;52.382;5.260;2022-07-29T03:27:04;7.15;;;1.92;;
44764;SDS011;30484;52.382;5.260;2022-07-29T03:29:32;5.60;;;1.70;;
44764;SDS011;30484;52.382;5.260;2022-07-29T03:32:01;4.47;;;1.85;;
44764;SDS011;30484;52.382;5.260;2022-07-29T03:34:33;7.20;;;1.70;;
44764;SDS011;30484;52.382;5.260;2022-07-29T03:37:03;2.67;;;1.50;;
44764;SDS011;30484;52.382;5.260;2022-07-29T03:39:33;3.97;;;1.80;;
44764;SDS011;30484;52.382;5.260;2022-07-29T03:42:04;6.82;;;2.20;;
44764;SDS011;30484;52.382;5.260;2022-07-29T03:44:33;5.30;;;1.80;;
44764;SDS011;30484;52.382;5.260;2022-07-29T03:47:02;6.47;;;2.10;;
44764;SDS011;30484;52.382;5.260;2022-07-29T03:49:32;3.30;;;1.85;;
44764;SDS011;30484;52.382;5.260;2022-07-29T03:52:00;4.63;;;1.80;;
44764;SDS011;30484;52.382;5.260;2022-07-29T03:54:30;7.95;;;1.73;;
44764;SDS011;30484;52.382;5.260;2022-07-29T03:56:58;6.65;;;2.03;;
44764;SDS011;30484;52.382;5.260;2022-07-29T03:59:27;8.32;;;1.77;;
44764;SDS011;30484;52.382;5.260;2022-07-29T04:01:55;4.30;;;1.67;;
44764;SDS011;30484;52.382;5.260;2022-07-29T04:04:24;4.95;;;1.70;;
44764;SDS011;30484;52.382;5.260;2022-07-29T04:06:54;4.63;;;1.88;;
44764;SDS011;30484;52.382;5.260;2022-07-29T04:09:21;7.63;;;1.92;;
44764;SDS011;30484;52.382;5.260;2022-07-29T04:11:51;5.53;;;1.92;;
44764;SDS011;30484;52.382;5.260;2022-07-29T04:14:32;9.48;;;2.50;;
44764;SDS011;30484;52.382;5.260;2022-07-29T04:17:02;6.90;;;2.58;;
44764;SDS011;30484;52.382;5.260;2022-07-29T04:19:31;6.35;;;2.10;;
44764;SDS011;30484;52.382;5.260;2022-07-29T04:21:59;6.07;;;1.80;;
44764;SDS011;30484;52.382;5.260;2022-07-29T04:24:28;6.97;;;1.95;;
44764;SDS011;30484;52.382;5.260;2022-07-29T04:26:57;7.05;;;2.00;;
44764;SDS011;30484;52.382;5.260;2022-07-29T04:29:25;6.55;;;2.05;;
44764;SDS011;30484;52.382;5.260;2022-07-29T04:31:53;5.25;;;2.20;;
44764;SDS011;30484;52.382;5.260;2022-07-29T04:34:23;4.90;;;2.22;;
44764;SDS011;30484;52.382;5.260;2022-07-29T04:36:53;8.63;;;2.22;;
44764;SDS011;30484;52.382;5.260;2022-07-29T04:39:23;7.10;;;2.25;;
44764;SDS011;30484;52.382;5.260;2022-07-29T04:44:28;8.77;;;2.05;;
44764;SDS011;30484;52.382;5.260;2022-07-29T04:47:02;6.13;;;2.13;;
44764;SDS011;30484;52.382;5.260;2022-07-29T04:49:30;4.78;;;1.60;;
44764;SDS011;30484;52.382;5.260;2022-07-29T04:51:58;6.03;;;1.88;;
44764;SDS011;30484;52.382;5.260;2022-07-29T04:54:27;5.22;;;2.15;;
44764;SDS011;30484;52.382;5.260;2022-07-29T04:56:55;5.38;;;2.10;;
44764;SDS011;30484;52.382;5.260;2022-07-29T04:59:31;4.60;;;1.70;;
44764;SDS011;30484;52.382;5.260;2022-07-29T05:02:02;4.60;;;1.60;;
44764;SDS011;30484;52.382;5.260;2022-07-29T05:04:30;4.25;;;1.92;;
44764;SDS011;30484;52.382;5.260;2022-07-29T05:06:58;4.22;;;1.90;;
44764;SDS011;30484;52.382;5.260;2022-07-29T05:09:26;4.30;;;1.83;;
44764;SDS011;30484;52.382;5.260;2022-07-29T05:12:00;6.93;;;1.70;;
44764;SDS011;30484;52.382;5.260;2022-07-29T05:14:28;6.75;;;2.25;;
44764;SDS011;30484;52.382;5.260;2022-07-29T05:16:58;5.05;;;2.40;;
44764;SDS011;30484;52.382;5.260;2022-07-29T05:19:26;7.97;;;1.88;;
44764;SDS011;30484;52.382;5.260;2022-07-29T05:21:54;4.63;;;2.03;;
44764;SDS011;30484;52.382;5.260;2022-07-29T05:24:22;4.13;;;2.00;;
44764;SDS011;30484;52.382;5.260;2022-07-29T05:26:50;5.15;;;1.95;;
44764;SDS011;30484;52.382;5.260;2022-07-29T05:29:18;7.40;;;2.20;;
44764;SDS011;30484;52.382;5.260;2022-07-29T05:32:07;9.38;;;2.50;;
44764;SDS011;30484;52.382;5.260;2022-07-29T05:34:35;4.80;;;2.17;;
44764;SDS011;30484;52.382;5.260;2022-07-29T05:37:16;8.73;;;2.60;;
44764;SDS011;30484;52.382;5.260;2022-07-29T05:39:45;4.68;;;1.80;;
44764;SDS011;30484;52.382;5.260;2022-07-29T05:42:22;3.75;;;1.88;;
44764;SDS011;30484;52.382;5.260;2022-07-29T05:44:50;5.03;;;2.05;;
44764;SDS011;30484;52.382;5.260;2022-07-29T05:47:19;5.68;;;1.98;;
44764;SDS011;30484;52.382;5.260;2022-07-29T05:49:47;8.68;;;3.97;;
44764;SDS011;30484;52.382;5.260;2022-07-29T05:52:16;8.60;;;2.90;;
44764;SDS011;30484;52.382;5.260;2022-07-29T05:54:44;10.80;;;2.53;;
44764;SDS011;30484;52.382;5.260;2022-07-29T05:57:14;6.63;;;2.38;;
44764;SDS011;30484;52.382;5.260;2022-07-29T05:59:43;9.30;;;1.80;;
44764;SDS011;30484;52.382;5.260;2022-07-29T06:02:11;8.93;;;2.45;;
44764;SDS011;30484;52.382;5.260;2022-07-29T06:04:40;10.10;;;2.10;;
44764;SDS011;30484;52.382;5.260;2022-07-29T06:07:08;10.07;;;2.65;;
44764;SDS011;30484;52.382;5.260;2022-07-29T06:09:37;6.32;;;2.20;;
44764;SDS011;30484;52.382;5.260;2022-07-29T06:12:05;6.63;;;1.95;;
44764;SDS011;30484;52.382;5.260;2022-07-29T06:14:33;9.68;;;2.00;;
44764;SDS011;30484;52.382;5.260;2022-07-29T06:17:01;7.13;;;2.20;;
44764;SDS011;30484;52.382;5.260;2022-07-29T06:19:30;11.20;;;2.10;;
44764;SDS011;30484;52.382;5.260;2022-07-29T06:21:59;4.78;;;2.10;;
44764;SDS011;30484;52.382;5.260;2022-07-29T06:24:28;5.05;;;1.90;;
44764;SDS011;30484;52.382;5.260;2022-07-29T06:26:56;7.68;;;2.05;;
44764;SDS011;30484;52.382;5.260;2022-07-29T06:29:24;8.90;;;2.20;;
44764;SDS011;30484;52.382;5.260;2022-07-29T06:31:52;8.57;;;2.03;;
44764;SDS011;30484;52.382;5.260;2022-07-29T06:34:20;6.25;;;2.10;;
44764;SDS011;30484;52.382;5.260;2022-07-29T06:36:48;5.35;;;1.73;;
44764;SDS011;30484;52.382;5.260;2022-07-29T06:39:19;8.77;;;2.13;;
44764;SDS011;30484;52.382;5.260;2022-07-29T06:41:47;4.90;;;2.05;;
44764;SDS011;30484;52.382;5.260;2022-07-29T06:44:16;8.73;;;2.15;;
44764;SDS011;30484;52.382;5.260;2022-07-29T06:46:45;6.38;;;2.30;;
44764;SDS011;30484;52.382;5.260;2022-07-29T06:49:15;5.10;;;1.58;;
44764;SDS011;30484;52.382;5.260;2022-07-29T06:51:43;4.40;;;1.80;;
44764;SDS011;30484;52.382;5.260;2022-07-29T06:54:11;7.60;;;1.92;;
44764;SDS011;30484;52.382;5.260;2022-07-29T06:56:41;11.05;;;2.58;;
44764;SDS011;30484;52.382;5.260;2022-07-29T06:59:10;8.52;;;2.10;;
44764;SDS011;30484;52.382;5.260;2022-07-29T07:01:39;7.30;;;1.95;;
44764;SDS011;30484;52.382;5.260;2022-07-29T07:04:08;4.85;;;1.70;;
44764;SDS011;30484;52.382;5.260;2022-07-29T07:06:37;7.03;;;1.95;;
44764;SDS011;30484;52.382;5.260;2022-07-29T07:09:05;5.85;;;1.85;;
44764;SDS011;30484;52.382;5.260;2022-07-29T07:11:33;8.23;;;2.00;;
44764;SDS011;30484;52.382;5.260;2022-07-29T07:14:03;5.22;;;2.17;;
44764;SDS011;30484;52.382;5.260;2022-07-29T07:16:31;7.10;;;1.80;;
44764;SDS011;30484;52.382;5.260;2022-07-29T07:18:59;5.03;;;2.00;;
44764;SDS011;30484;52.382;5.260;2022-07-29T07:21:27;7.18;;;1.75;;
44764;SDS011;30484;52.382;5.260;2022-07-29T07:23:56;15.68;;;2.15;;
44764;SDS011;30484;52.382;5.260;2022-07-29T07:26:24;8.20;;;1.80;;
44764;SDS011;30484;52.382;5.260;2022-07-29T07:28:53;7.70;;;2.08;;
44764;SDS011;30484;52.382;5.260;2022-07-29T07:31:22;7.32;;;2.17;;
44764;SDS011;30484;52.382;5.260;2022-07-29T07:33:50;9.40;;;2.10;;
44764;SDS011;30484;52.382;5.260;2022-07-29T07:36:19;3.55;;;2.00;;
44764;SDS011;30484;52.382;5.260;2022-07-29T07:38:48;8.18;;;2.20;;
44764;SDS011;30484;52.382;5.260;2022-07-29T07:41:16;8.23;;;2.10;;
44764;SDS011;30484;52.382;5.260;2022-07-29T07:43:44;4.00;;;1.88;;
44764;SDS011;30484;52.382;5.260;2022-07-29T07:46:12;3.72;;;1.58;;
44764;SDS011;30484;52.382;5.260;2022-07-29T07:48:42;7.75;;;1.65;;
44764;SDS011;30484;52.382;5.260;2022-07-29T07:51:10;8.43;;;2.20;;
44764;SDS011;30484;52.382;5.260;2022-07-29T07:53:38;4.82;;;1.83;;
44764;SDS011;30484;52.382;5.260;2022-07-29T07:56:06;10.43;;;1.92;;
44764;SDS011;30484;52.382;5.260;2022-07-29T07:58:37;9.40;;;2.40;;
44764;SDS011;30484;52.382;5.260;2022-07-29T08:01:06;5.05;;;2.08;;
44764;SDS011;30484;52.382;5.260;2022-07-29T08:03:34;4.32;;;1.73;;
44764;SDS011;30484;52.382;5.260;2022-07-29T08:06:04;10.20;;;1.70;;
44764;SDS011;30484;52.382;5.260;2022-07-29T08:08:32;5.95;;;2.10;;
44764;SDS011;30484;52.382;5.260;2022-07-29T08:11:00;8.82;;;2.28;;
44764;SDS011;30484;52.382;5.260;2022-07-29T08:13:35;10.82;;;2.30;;
44764;SDS011;30484;52.382;5.260;2022-07-29T08:16:04;5.93;;;1.98;;
44764;SDS011;30484;52.382;5.260;2022-07-29T08:18:39;14.35;;;2.05;;
44764;SDS011;30484;52.382;5.260;2022-07-29T08:21:10;5.50;;;1.95;;
44764;SDS011;30484;52.382;5.260;2022-07-29T08:23:40;9.10;;;2.10;;
44764;SDS011;30484;52.382;5.260;2022-07-29T08:26:25;4.88;;;1.90;;
44764;SDS011;30484;52.382;5.260;2022-07-29T08:28:53;5.72;;;2.17;;
44764;SDS011;30484;52.382;5.260;2022-07-29T08:31:21;5.10;;;2.00;;
44764;SDS011;30484;52.382;5.260;2022-07-29T08:33:49;5.95;;;1.98;;
44764;SDS011;30484;52.382;5.260;2022-07-29T08:36:18;10.50;;;1.80;;
44764;SDS011;30484;52.382;5.260;2022-07-29T08:38:48;4.50;;;2.00;;
44764;SDS011;30484;52.382;5.260;2022-07-29T08:41:17;7.03;;;2.10;;
44764;SDS011;30484;52.382;5.260;2022-07-29T08:43:46;7.50;;;2.13;;
44764;SDS011;30484;52.382;5.260;2022-07-29T08:46:15;7.97;;;2.30;;
44764;SDS011;30484;52.382;5.260;2022-07-29T08:48:45;4.25;;;1.67;;
44764;SDS011;30484;52.382;5.260;2022-07-29T08:51:15;9.10;;;1.85;;
44764;SDS011;30484;52.382;5.260;2022-07-29T08:53:46;12.75;;;1.90;;
44764;SDS011;30484;52.382;5.260;2022-07-29T08:56:16;8.10;;;2.30;;
44764;SDS011;30484;52.382;5.260;2022-07-29T08:58:45;7.18;;;2.20;;
44764;SDS011;30484;52.382;5.260;2022-07-29T09:01:21;9.07;;;2.17;;
44764;SDS011;30484;52.382;5.260;2022-07-29T09:04:03;7.25;;;2.13;;
44764;SDS011;30484;52.382;5.260;2022-07-29T09:06:34;6.40;;;1.98;;
44764;SDS011;30484;52.382;5.260;2022-07-29T09:09:07;7.40;;;2.10;;
44764;SDS011;30484;52.382;5.260;2022-07-29T09:11:35;4.38;;;1.98;;
44764;SDS011;30484;52.382;5.260;2022-07-29T09:14:04;8.43;;;2.35;;
44764;SDS011;30484;52.382;5.260;2022-07-29T09:16:48;8.82;;;2.33;;
44764;SDS011;30484;52.382;5.260;2022-07-29T09:19:24;6.70;;;2.58;;
44764;SDS011;30484;52.382;5.260;2022-07-29T09:21:54;6.15;;;2.00;;
44764;SDS011;30484;52.382;5.260;2022-07-29T09:24:26;9.68;;;1.73;;
44764;SDS011;30484;52.382;5.260;2022-07-29T09:27:06;7.80;;;2.60;;
44764;SDS011;30484;52.382;5.260;2022-07-29T09:29:36;6.20;;;1.92;;
44764;SDS011;30484;52.382;5.260;2022-07-29T09:32:06;5.20;;;1.92;;
44764;SDS011;30484;52.382;5.260;2022-07-29T09:34:36;11.98;;;2.47;;
44764;SDS011;30484;52.382;5.260;2022-07-29T09:37:05;7.25;;;2.50;;
44764;SDS011;30484;52.382;5.260;2022-07-29T09:39:35;7.22;;;2.30;;
44764;SDS011;30484;52.382;5.260;2022-07-29T09:42:11;4.78;;;1.92;;
44764;SDS011;30484;52.382;5.260;2022-07-29T09:44:43;5.53;;;2.10;;
44764;SDS011;30484;52.382;5.260;2022-07-29T09:47:12;9.15;;;2.20;;
44764;SDS011;30484;52.382;5.260;2022-07-29T09:49:51;9.85;;;3.00;;
44764;SDS011;30484;52.382;5.260;2022-07-29T09:52:20;4.95;;;2.10;;
44764;SDS011;30484;52.382;5.260;2022-07-29T09:54:49;7.20;;;2.70;;
44764;SDS011;30484;52.382;5.260;2022-07-29T09:57:21;7.55;;;2.25;;
44764;SDS011;30484;52.382;5.260;2022-07-29T09:59:56;7.05;;;2.17;;
44764;SDS011;30484;52.382;5.260;2022-07-29T10:02:29;7.53;;;2.75;;
44764;SDS011;30484;52.382;5.260;2022-07-29T10:04:58;7.55;;;2.38;;
44764;SDS011;30484;52.382;5.260;2022-07-29T10:07:27;7.50;;;2.50;;
44764;SDS011;30484;52.382;5.260;2022-07-29T10:10:20;7.75;;;2.50;;
44764;SDS011;30484;52.382;5.260;2022-07-29T10:12:50;7.05;;;2.70;;
44764;SDS011;30484;52.382;5.260;2022-07-29T10:15:21;7.63;;;3.00;;
44764;SDS011;30484;52.382;5.260;2022-07-29T10:17:50;9.93;;;2.90;;
44764;SDS011;30484;52.382;5.260;2022-07-29T10:20:18;4.88;;;2.22;;
44764;SDS011;30484;52.382;5.260;2022-07-29T10:22:47;7.60;;;2.55;;
44764;SDS011;30484;52.382;5.260;2022-07-29T10:25:19;6.32;;;2.60;;
44764;SDS011;30484;52.382;5.260;2022-07-29T10:27:49;9.95;;;2.55;;
44764;SDS011;30484;52.382;5.260;2022-07-29T10:30:18;7.93;;;2.20;;
44764;SDS011;30484;52.382;5.260;2022-07-29T10:33:01;5.68;;;2.47;;
44764;SDS011;30484;52.382;5.260;2022-07-29T10:35:54;7.40;;;2.45;;
44764;SDS011;30484;52.382;5.260;2022-07-29T10:38:45;6.57;;;2.65;;
44764;SDS011;30484;52.382;5.260;2022-07-29T10:44:30;6.60;;;2.42;;
44764;SDS011;30484;52.382;5.260;2022-07-29T10:46:58;6.53;;;2.50;;
44764;SDS011;30484;52.382;5.260;2022-07-29T10:49:27;6.18;;;2.80;;
44764;SDS011;30484;52.382;5.260;2022-07-29T10:51:57;4.80;;;2.13;;
44764;SDS011;30484;52.382;5.260;2022-07-29T10:54:43;5.95;;;2.42;;
44764;SDS011;30484;52.382;5.260;2022-07-29T10:57:16;7.80;;;2.22;;
44764;SDS011;30484;52.382;5.260;2022-07-29T11:03:01;6.50;;;2.70;;
44764;SDS011;30484;52.382;5.260;2022-07-29T11:05:52;7.88;;;2.88;;
44764;SDS011;30484;52.382;5.260;2022-07-29T11:08:22;5.25;;;2.70;;
44764;SDS011;30484;52.382;5.260;2022-07-29T11:13:56;6.63;;;2.53;;
44764;SDS011;30484;52.382;5.260;2022-07-29T11:16:24;8.45;;;2.88;;
44764;SDS011;30484;52.382;5.260;2022-07-29T11:21:56;6.72;;;2.42;;
44764;SDS011;30484;52.382;5.260;2022-07-29T11:24:25;6.05;;;2.47;;
44764;SDS011;30484;52.382;5.260;2022-07-29T11:27:15;5.43;;;2.30;;
44764;SDS011;30484;52.382;5.260;2022-07-29T11:29:50;6.57;;;2.38;;
44764;SDS011;30484;52.382;5.260;2022-07-29T11:32:20;5.97;;;2.05;;
44764;SDS011;30484;52.382;5.260;2022-07-29T11:34:50;6.38;;;2.50;;
44764;SDS011;30484;52.382;5.260;2022-07-29T11:37:43;6.00;;;2.30;;
44764;SDS011;30484;52.382;5.260;2022-07-29T11:40:18;6.65;;;2.70;;
44764;SDS011;30484;52.382;5.260;2022-07-29T11:42:47;7.68;;;2.20;;
44764;SDS011;30484;52.382;5.260;2022-07-29T11:45:22;7.40;;;2.28;;
44764;SDS011;30484;52.382;5.260;2022-07-29T11:48:17;8.30;;;2.60;;
44764;SDS011;30484;52.382;5.260;2022-07-29T11:51:08;5.65;;;2.53;;
44764;SDS011;30484;52.382;5.260;2022-07-29T11:53:38;6.57;;;2.22;;
44764;SDS011;30484;52.382;5.260;2022-07-29T11:56:07;10.75;;;2.80;;
44764;SDS011;30484;52.382;5.260;2022-07-29T11:58:42;4.82;;;2.30;;
44764;SDS011;30484;52.382;5.260;2022-07-29T12:01:14;14.88;;;2.60;;
44764;SDS011;30484;52.382;5.260;2022-07-29T12:03:44;8.07;;;2.22;;
44764;SDS011;30484;52.382;5.260;2022-07-29T12:06:13;7.63;;;2.17;;
44764;SDS011;30484;52.382;5.260;2022-07-29T12:08:43;14.13;;;2.50;;
44764;SDS011;30484;52.382;5.260;2022-07-29T12:11:15;5.90;;;2.17;;
44764;SDS011;30484;52.382;5.260;2022-07-29T12:13:46;5.75;;;2.30;;
44764;SDS011;30484;52.382;5.260;2022-07-29T12:16:16;4.28;;;2.53;;
44764;SDS011;30484;52.382;5.260;2022-07-29T12:18:55;5.68;;;2.38;;
44764;SDS011;30484;52.382;5.260;2022-07-29T12:21:24;6.88;;;2.30;;
44764;SDS011;30484;52.382;5.260;2022-07-29T12:23:56;4.82;;;2.38;;
44764;SDS011;30484;52.382;5.260;2022-07-29T12:26:34;10.77;;;2.17;;
44764;SDS011;30484;52.382;5.260;2022-07-29T12:29:02;7.22;;;2.40;;
44764;SDS011;30484;52.382;5.260;2022-07-29T12:31:42;8.85;;;2.50;;
44764;SDS011;30484;52.382;5.260;2022-07-29T12:34:11;8.30;;;2.33;;
44764;SDS011;30484;52.382;5.260;2022-07-29T12:36:39;5.55;;;2.17;;
44764;SDS011;30484;52.382;5.260;2022-07-29T12:39:08;11.13;;;2.90;;
44764;SDS011;30484;52.382;5.260;2022-07-29T12:41:37;5.70;;;2.22;;
44764;SDS011;30484;52.382;5.260;2022-07-29T12:44:06;8.48;;;2.63;;
44764;SDS011;30484;52.382;5.260;2022-07-29T12:46:34;5.93;;;2.20;;
44764;SDS011;30484;52.382;5.260;2022-07-29T12:49:03;5.65;;;2.35;;
44764;SDS011;30484;52.382;5.260;2022-07-29T12:51:32;8.57;;;2.20;;
44764;SDS011;30484;52.382;5.260;2022-07-29T12:54:04;7.63;;;2.67;;
44764;SDS011;30484;52.382;5.260;2022-07-29T12:56:34;7.97;;;2.35;;
44764;SDS011;30484;52.382;5.260;2022-07-29T12:59:11;11.32;;;2.35;;
44764;SDS011;30484;52.382;5.260;2022-07-29T13:01:44;8.80;;;2.65;;
44764;SDS011;30484;52.382;5.260;2022-07-29T13:04:24;6.70;;;2.80;;
44764;SDS011;30484;52.382;5.260;2022-07-29T13:06:59;6.45;;;2.25;;
44764;SDS011;30484;52.382;5.260;2022-07-29T13:09:36;9.02;;;2.58;;
44764;SDS011;30484;52.382;5.260;2022-07-29T13:12:05;8.13;;;2.20;;
44764;SDS011;30484;52.382;5.260;2022-07-29T13:14:35;9.85;;;3.00;;
44764;SDS011;30484;52.382;5.260;2022-07-29T13:17:05;4.78;;;2.22;;
44764;SDS011;30484;52.382;5.260;2022-07-29T13:19:37;12.68;;;2.90;;
44764;SDS011;30484;52.382;5.260;2022-07-29T13:22:07;12.65;;;2.70;;
44764;SDS011;30484;52.382;5.260;2022-07-29T13:24:44;11.60;;;3.00;;
44764;SDS011;30484;52.382;5.260;2022-07-29T13:27:13;5.40;;;2.40;;
44764;SDS011;30484;52.382;5.260;2022-07-29T13:29:42;10.75;;;2.90;;
44764;SDS011;30484;52.382;5.260;2022-07-29T13:32:11;12.02;;;3.10;;
44764;SDS011;30484;52.382;5.260;2022-07-29T13:34:41;10.05;;;2.60;;
44764;SDS011;30484;52.382;5.260;2022-07-29T13:37:09;5.40;;;2.40;;
44764;SDS011;30484;52.382;5.260;2022-07-29T13:39:37;11.98;;;3.10;;
44764;SDS011;30484;52.382;5.260;2022-07-29T13:42:06;11.45;;;3.85;;
44764;SDS011;30484;52.382;5.260;2022-07-29T13:44:36;7.38;;;2.58;;
44764;SDS011;30484;52.382;5.260;2022-07-29T13:47:04;11.07;;;3.40;;
44764;SDS011;30484;52.382;5.260;2022-07-29T13:49:32;12.18;;;2.75;;
44764;SDS011;30484;52.382;5.260;2022-07-29T13:52:02;6.43;;;2.60;;
44764;SDS011;30484;52.382;5.260;2022-07-29T13:54:33;19.13;;;5.05;;
44764;SDS011;30484;52.382;5.260;2022-07-29T13:57:07;9.47;;;3.10;;
44764;SDS011;30484;52.382;5.260;2022-07-29T13:59:37;10.73;;;3.67;;
44764;SDS011;30484;52.382;5.260;2022-07-29T14:02:05;7.43;;;2.85;;
44764;SDS011;30484;52.382;5.260;2022-07-29T14:04:33;6.53;;;2.75;;
44764;SDS011;30484;52.382;5.260;2022-07-29T14:07:06;7.20;;;3.10;;
44764;SDS011;30484;52.382;5.260;2022-07-29T14:09:35;9.20;;;3.20;;
44764;SDS011;30484;52.382;5.260;2022-07-29T14:12:07;9.02;;;2.45;;
44764;SDS011;30484;52.382;5.260;2022-07-29T14:14:35;10.93;;;2.85;;
44764;SDS011;30484;52.382;5.260;2022-07-29T14:17:04;7.03;;;3.15;;
44764;SDS011;30484;52.382;5.260;2022-07-29T14:19:33;9.82;;;2.75;;
44764;SDS011;30484;52.382;5.260;2022-07-29T14:22:04;10.27;;;3.47;;
44764;SDS011;30484;52.382;5.260;2022-07-29T14:24:34;6.40;;;2.42;;
44764;SDS011;30484;52.382;5.260;2022-07-29T14:27:03;7.43;;;2.20;;
44764;SDS011;30484;52.382;5.260;2022-07-29T14:29:31;5.85;;;2.47;;
44764;SDS011;30484;52.382;5.260;2022-07-29T14:32:04;5.53;;;2.20;;
44764;SDS011;30484;52.382;5.260;2022-07-29T14:34:32;7.55;;;1.98;;
44764;SDS011;30484;52.382;5.260;2022-07-29T14:37:00;13.13;;;3.08;;
44764;SDS011;30484;52.382;5.260;2022-07-29T14:39:32;5.28;;;1.88;;
44764;SDS011;30484;52.382;5.260;2022-07-29T14:42:08;7.18;;;2.05;;
44764;SDS011;30484;52.382;5.260;2022-07-29T14:44:38;10.60;;;2.15;;
44764;SDS011;30484;52.382;5.260;2022-07-29T14:47:07;4.93;;;1.65;;
44764;SDS011;30484;52.382;5.260;2022-07-29T14:49:35;8.88;;;1.65;;
44764;SDS011;30484;52.382;5.260;2022-07-29T14:52:03;6.40;;;1.80;;
44764;SDS011;30484;52.382;5.260;2022-07-29T14:54:33;6.50;;;1.90;;
44764;SDS011;30484;52.382;5.260;2022-07-29T14:57:01;15.38;;;1.90;;
44764;SDS011;30484;52.382;5.260;2022-07-29T14:59:29;6.43;;;1.35;;
44764;SDS011;30484;52.382;5.260;2022-07-29T15:01:59;5.53;;;1.60;;
44764;SDS011;30484;52.382;5.260;2022-07-29T15:04:28;3.78;;;1.40;;
44764;SDS011;30484;52.382;5.260;2022-07-29T15:06:56;4.63;;;1.50;;
44764;SDS011;30484;52.382;5.260;2022-07-29T15:09:27;5.13;;;1.77;;
44764;SDS011;30484;52.382;5.260;2022-07-29T15:11:57;6.03;;;1.90;;
44764;SDS011;30484;52.382;5.260;2022-07-29T15:14:26;7.95;;;1.45;;
44764;SDS011;30484;52.382;5.260;2022-07-29T15:16:54;5.72;;;1.30;;
44764;SDS011;30484;52.382;5.260;2022-07-29T15:19:25;5.95;;;1.27;;
44764;SDS011;30484;52.382;5.260;2022-07-29T15:21:53;4.07;;;1.35;;
44764;SDS011;30484;52.382;5.260;2022-07-29T15:24:25;8.90;;;1.50;;